sensor_id;sensor_type;location;lat;lon;timestamp;P1;durP1;ratioP1;P2;durP2;ratioP2
17482;SDS011;8858;52.308;20.994;2023-04-24T00:00:58;10.57;;;7.43;;
17482;SDS011;8858;52.308;20.994;2023-04-24T00:03:27;11.20;;;6.83;;
17482;SDS011;8858;52.308;20.994;2023-04-24T00:06:00;7.90;;;7.10;;
17482;SDS011;8858;52.308;20.994;2023-04-24T00:08:29;8.27;;;6.70;;
17482;SDS011;8858;52.308;20.994;2023-04-24T00:10:58;9.07;;;7.03;;
17482;SDS011;8858;52.308;20.994;2023-04-24T00:13:26;7.40;;;6.67;;
17482;SDS011;8858;52.308;20.994;2023-04-24T00:15:56;8.97;;;6.57;;
17482;SDS011;8858;52.308;20.994;2023-04-24T00:18:26;9.20;;;7.20;;
17482;SDS011;8858;52.308;20.994;2023-04-24T00:20:54;9.67;;;7.27;;
17482;SDS011;8858;52.308;20.994;2023-04-24T00:23:23;9.03;;;7.10;;
17482;SDS011;8858;52.308;20.994;2023-04-24T00:25:54;7.73;;;6.40;;
17482;SDS011;8858;52.308;20.994;2023-04-24T00:28:23;12.27;;;7.23;;
17482;SDS011;8858;52.308;20.994;2023-04-24T00:30:57;9.33;;;6.77;;
17482;SDS011;8858;52.308;20.994;2023-04-24T00:33:25;9.87;;;7.13;;
17482;SDS011;8858;52.308;20.994;2023-04-24T00:35:54;13.20;;;7.13;;
17482;SDS011;8858;52.308;20.994;2023-04-24T00:38:23;13.57;;;6.90;;
17482;SDS011;8858;52.308;20.994;2023-04-24T00:40:51;11.63;;;7.00;;
17482;SDS011;8858;52.308;20.994;2023-04-24T00:43:24;11.67;;;7.33;;
17482;SDS011;8858;52.308;20.994;2023-04-24T00:45:52;10.43;;;6.83;;
17482;SDS011;8858;52.308;20.994;2023-04-24T00:48:24;10.87;;;7.20;;
17482;SDS011;8858;52.308;20.994;2023-04-24T00:50:52;11.87;;;6.80;;
17482;SDS011;8858;52.308;20.994;2023-04-24T00:53:25;9.93;;;7.00;;
17482;SDS011;8858;52.308;20.994;2023-04-24T00:55:54;13.20;;;8.20;;
17482;SDS011;8858;52.308;20.994;2023-04-24T00:58:22;12.40;;;8.23;;
17482;SDS011;8858;52.308;20.994;2023-04-24T01:00:52;10.80;;;7.50;;
17482;SDS011;8858;52.308;20.994;2023-04-24T01:03:21;8.57;;;7.47;;
17482;SDS011;8858;52.308;20.994;2023-04-24T01:05:53;12.83;;;8.10;;
17482;SDS011;8858;52.308;20.994;2023-04-24T01:08:23;11.20;;;7.17;;
17482;SDS011;8858;52.308;20.994;2023-04-24T01:10:52;11.83;;;7.17;;
17482;SDS011;8858;52.308;20.994;2023-04-24T01:13:21;8.43;;;7.43;;
17482;SDS011;8858;52.308;20.994;2023-04-24T01:15:49;9.07;;;7.20;;
17482;SDS011;8858;52.308;20.994;2023-04-24T01:18:18;8.07;;;7.20;;
17482;SDS011;8858;52.308;20.994;2023-04-24T01:20:51;10.03;;;7.10;;
17482;SDS011;8858;52.308;20.994;2023-04-24T01:23:24;9.73;;;7.53;;
17482;SDS011;8858;52.308;20.994;2023-04-24T01:25:54;10.07;;;6.53;;
17482;SDS011;8858;52.308;20.994;2023-04-24T01:28:24;10.03;;;7.00;;
17482;SDS011;8858;52.308;20.994;2023-04-24T01:30:53;8.57;;;7.63;;
17482;SDS011;8858;52.308;20.994;2023-04-24T01:33:24;9.30;;;7.30;;
17482;SDS011;8858;52.308;20.994;2023-04-24T01:35:53;10.57;;;7.53;;
17482;SDS011;8858;52.308;20.994;2023-04-24T01:38:21;14.20;;;7.90;;
17482;SDS011;8858;52.308;20.994;2023-04-24T01:40:52;11.80;;;7.50;;
17482;SDS011;8858;52.308;20.994;2023-04-24T01:43:20;10.67;;;7.97;;
17482;SDS011;8858;52.308;20.994;2023-04-24T01:45:51;11.10;;;7.30;;
17482;SDS011;8858;52.308;20.994;2023-04-24T01:48:20;13.00;;;7.60;;
17482;SDS011;8858;52.308;20.994;2023-04-24T01:50:49;15.77;;;7.50;;
17482;SDS011;8858;52.308;20.994;2023-04-24T01:53:18;16.33;;;7.37;;
17482;SDS011;8858;52.308;20.994;2023-04-24T01:55:47;14.17;;;7.20;;
17482;SDS011;8858;52.308;20.994;2023-04-24T01:58:18;14.80;;;7.40;;
17482;SDS011;8858;52.308;20.994;2023-04-24T02:00:47;14.43;;;7.60;;
17482;SDS011;8858;52.308;20.994;2023-04-24T02:03:19;11.50;;;7.57;;
17482;SDS011;8858;52.308;20.994;2023-04-24T02:05:48;9.43;;;6.90;;
17482;SDS011;8858;52.308;20.994;2023-04-24T02:08:16;12.23;;;7.40;;
17482;SDS011;8858;52.308;20.994;2023-04-24T02:10:50;9.13;;;7.27;;
17482;SDS011;8858;52.308;20.994;2023-04-24T02:13:18;11.63;;;7.70;;
17482;SDS011;8858;52.308;20.994;2023-04-24T02:15:46;10.70;;;8.33;;
17482;SDS011;8858;52.308;20.994;2023-04-24T02:18:14;11.67;;;7.53;;
17482;SDS011;8858;52.308;20.994;2023-04-24T02:20:43;14.40;;;7.60;;
17482;SDS011;8858;52.308;20.994;2023-04-24T02:23:14;14.03;;;7.73;;
17482;SDS011;8858;52.308;20.994;2023-04-24T02:25:44;17.73;;;8.63;;
17482;SDS011;8858;52.308;20.994;2023-04-24T02:28:17;13.83;;;7.60;;
17482;SDS011;8858;52.308;20.994;2023-04-24T02:30:46;16.33;;;7.97;;
17482;SDS011;8858;52.308;20.994;2023-04-24T02:33:14;20.20;;;8.67;;
17482;SDS011;8858;52.308;20.994;2023-04-24T02:35:43;15.30;;;8.57;;
17482;SDS011;8858;52.308;20.994;2023-04-24T02:38:12;13.70;;;7.67;;
17482;SDS011;8858;52.308;20.994;2023-04-24T02:40:42;11.83;;;8.13;;
17482;SDS011;8858;52.308;20.994;2023-04-24T02:43:11;15.10;;;7.70;;
17482;SDS011;8858;52.308;20.994;2023-04-24T02:45:41;11.63;;;8.00;;
17482;SDS011;8858;52.308;20.994;2023-04-24T02:48:10;12.77;;;7.90;;
17482;SDS011;8858;52.308;20.994;2023-04-24T02:50:39;13.73;;;8.20;;
17482;SDS011;8858;52.308;20.994;2023-04-24T02:53:30;11.77;;;7.70;;
17482;SDS011;8858;52.308;20.994;2023-04-24T02:56:00;12.07;;;8.10;;
17482;SDS011;8858;52.308;20.994;2023-04-24T02:58:28;13.17;;;8.40;;
17482;SDS011;8858;52.308;20.994;2023-04-24T03:00:58;11.93;;;8.23;;
17482;SDS011;8858;52.308;20.994;2023-04-24T03:03:27;11.20;;;7.67;;
17482;SDS011;8858;52.308;20.994;2023-04-24T03:05:55;10.77;;;7.20;;
17482;SDS011;8858;52.308;20.994;2023-04-24T03:08:25;13.23;;;7.77;;
17482;SDS011;8858;52.308;20.994;2023-04-24T03:10:53;11.67;;;8.17;;
17482;SDS011;8858;52.308;20.994;2023-04-24T03:13:21;15.90;;;8.43;;
17482;SDS011;8858;52.308;20.994;2023-04-24T03:15:53;12.10;;;7.87;;
17482;SDS011;8858;52.308;20.994;2023-04-24T03:18:23;12.67;;;8.00;;
17482;SDS011;8858;52.308;20.994;2023-04-24T03:20:52;10.93;;;8.40;;
17482;SDS011;8858;52.308;20.994;2023-04-24T03:23:24;18.17;;;8.50;;
17482;SDS011;8858;52.308;20.994;2023-04-24T03:25:53;14.53;;;8.30;;
17482;SDS011;8858;52.308;20.994;2023-04-24T03:28:22;14.97;;;8.57;;
17482;SDS011;8858;52.308;20.994;2023-04-24T03:30:57;15.23;;;8.27;;
17482;SDS011;8858;52.308;20.994;2023-04-24T03:33:31;17.97;;;8.67;;
17482;SDS011;8858;52.308;20.994;2023-04-24T03:36:02;19.57;;;9.00;;
17482;SDS011;8858;52.308;20.994;2023-04-24T03:38:36;13.53;;;8.50;;
17482;SDS011;8858;52.308;20.994;2023-04-24T03:41:26;15.87;;;8.43;;
17482;SDS011;8858;52.308;20.994;2023-04-24T03:44:03;12.70;;;8.37;;
17482;SDS011;8858;52.308;20.994;2023-04-24T03:46:32;19.40;;;8.70;;
17482;SDS011;8858;52.308;20.994;2023-04-24T03:49:06;13.83;;;8.87;;
17482;SDS011;8858;52.308;20.994;2023-04-24T03:51:40;16.53;;;8.40;;
17482;SDS011;8858;52.308;20.994;2023-04-24T03:54:22;14.20;;;8.83;;
17482;SDS011;8858;52.308;20.994;2023-04-24T03:56:52;20.97;;;8.73;;
17482;SDS011;8858;52.308;20.994;2023-04-24T03:59:22;26.80;;;9.10;;
17482;SDS011;8858;52.308;20.994;2023-04-24T04:02:04;21.87;;;9.77;;
17482;SDS011;8858;52.308;20.994;2023-04-24T04:04:34;18.77;;;9.03;;
17482;SDS011;8858;52.308;20.994;2023-04-24T04:07:04;20.13;;;9.50;;
17482;SDS011;8858;52.308;20.994;2023-04-24T04:09:34;22.47;;;9.03;;
17482;SDS011;8858;52.308;20.994;2023-04-24T04:12:02;29.77;;;9.20;;
17482;SDS011;8858;52.308;20.994;2023-04-24T04:14:33;16.80;;;7.97;;
17482;SDS011;8858;52.308;20.994;2023-04-24T04:17:02;16.97;;;8.40;;
17482;SDS011;8858;52.308;20.994;2023-04-24T04:19:30;22.23;;;9.00;;
17482;SDS011;8858;52.308;20.994;2023-04-24T04:22:00;16.93;;;8.47;;
17482;SDS011;8858;52.308;20.994;2023-04-24T04:24:42;18.27;;;8.20;;
17482;SDS011;8858;52.308;20.994;2023-04-24T04:27:11;15.43;;;8.10;;
17482;SDS011;8858;52.308;20.994;2023-04-24T04:29:56;13.93;;;8.10;;
17482;SDS011;8858;52.308;20.994;2023-04-24T04:32:26;14.63;;;8.17;;
17482;SDS011;8858;52.308;20.994;2023-04-24T04:34:54;9.90;;;8.73;;
17482;SDS011;8858;52.308;20.994;2023-04-24T04:37:28;16.47;;;9.00;;
17482;SDS011;8858;52.308;20.994;2023-04-24T04:40:14;13.50;;;8.70;;
17482;SDS011;8858;52.308;20.994;2023-04-24T04:42:50;11.03;;;7.73;;
17482;SDS011;8858;52.308;20.994;2023-04-24T04:45:22;15.10;;;8.00;;
17482;SDS011;8858;52.308;20.994;2023-04-24T04:48:13;19.00;;;8.67;;
17482;SDS011;8858;52.308;20.994;2023-04-24T04:50:45;16.77;;;8.57;;
17482;SDS011;8858;52.308;20.994;2023-04-24T04:53:14;19.70;;;9.00;;
17482;SDS011;8858;52.308;20.994;2023-04-24T04:55:43;19.50;;;9.20;;
17482;SDS011;8858;52.308;20.994;2023-04-24T04:58:14;18.63;;;9.17;;
17482;SDS011;8858;52.308;20.994;2023-04-24T05:00:49;15.77;;;7.93;;
17482;SDS011;8858;52.308;20.994;2023-04-24T05:03:40;15.40;;;8.37;;
17482;SDS011;8858;52.308;20.994;2023-04-24T05:06:12;20.97;;;9.13;;
17482;SDS011;8858;52.308;20.994;2023-04-24T05:08:41;21.87;;;9.10;;
17482;SDS011;8858;52.308;20.994;2023-04-24T05:11:20;20.93;;;8.83;;
17482;SDS011;8858;52.308;20.994;2023-04-24T05:13:49;22.03;;;9.30;;
17482;SDS011;8858;52.308;20.994;2023-04-24T05:16:24;25.53;;;8.93;;
17482;SDS011;8858;52.308;20.994;2023-04-24T05:18:53;25.97;;;9.00;;
17482;SDS011;8858;52.308;20.994;2023-04-24T05:21:27;28.30;;;9.43;;
17482;SDS011;8858;52.308;20.994;2023-04-24T05:23:57;21.07;;;8.53;;
17482;SDS011;8858;52.308;20.994;2023-04-24T05:26:48;28.30;;;9.60;;
17482;SDS011;8858;52.308;20.994;2023-04-24T05:29:22;20.93;;;9.27;;
17482;SDS011;8858;52.308;20.994;2023-04-24T05:31:52;24.17;;;9.20;;
17482;SDS011;8858;52.308;20.994;2023-04-24T05:34:21;28.40;;;9.63;;
17482;SDS011;8858;52.308;20.994;2023-04-24T05:36:53;37.33;;;14.37;;
17482;SDS011;8858;52.308;20.994;2023-04-24T05:39:23;21.47;;;10.57;;
17482;SDS011;8858;52.308;20.994;2023-04-24T05:41:53;15.27;;;8.83;;
17482;SDS011;8858;52.308;20.994;2023-04-24T05:44:21;20.33;;;9.53;;
17482;SDS011;8858;52.308;20.994;2023-04-24T05:46:49;22.87;;;8.97;;
17482;SDS011;8858;52.308;20.994;2023-04-24T05:49:18;22.10;;;9.40;;
17482;SDS011;8858;52.308;20.994;2023-04-24T05:51:47;23.13;;;8.47;;
17482;SDS011;8858;52.308;20.994;2023-04-24T05:54:19;17.83;;;8.47;;
17482;SDS011;8858;52.308;20.994;2023-04-24T05:56:50;16.37;;;9.13;;
17482;SDS011;8858;52.308;20.994;2023-04-24T05:59:29;18.40;;;8.83;;
17482;SDS011;8858;52.308;20.994;2023-04-24T06:01:57;16.83;;;7.90;;
17482;SDS011;8858;52.308;20.994;2023-04-24T06:04:25;15.80;;;7.97;;
17482;SDS011;8858;52.308;20.994;2023-04-24T06:06:57;19.15;;;8.98;;
17482;SDS011;8858;52.308;20.994;2023-04-24T06:09:26;28.63;;;9.30;;
17482;SDS011;8858;52.308;20.994;2023-04-24T06:11:57;18.87;;;9.50;;
17482;SDS011;8858;52.308;20.994;2023-04-24T06:14:35;16.50;;;8.60;;
17482;SDS011;8858;52.308;20.994;2023-04-24T06:17:30;25.93;;;9.30;;
17482;SDS011;8858;52.308;20.994;2023-04-24T06:19:59;20.47;;;8.90;;
17482;SDS011;8858;52.308;20.994;2023-04-24T06:22:28;19.57;;;8.63;;
17482;SDS011;8858;52.308;20.994;2023-04-24T06:24:56;14.77;;;8.63;;
17482;SDS011;8858;52.308;20.994;2023-04-24T06:27:25;13.17;;;8.33;;
17482;SDS011;8858;52.308;20.994;2023-04-24T06:29:54;15.10;;;8.17;;
17482;SDS011;8858;52.308;20.994;2023-04-24T06:32:22;13.13;;;7.73;;
17482;SDS011;8858;52.308;20.994;2023-04-24T06:34:53;18.13;;;8.10;;
17482;SDS011;8858;52.308;20.994;2023-04-24T06:37:23;18.80;;;8.13;;
17482;SDS011;8858;52.308;20.994;2023-04-24T06:39:51;15.57;;;8.23;;
17482;SDS011;8858;52.308;20.994;2023-04-24T06:42:20;14.87;;;7.93;;
17482;SDS011;8858;52.308;20.994;2023-04-24T06:44:50;12.87;;;8.17;;
17482;SDS011;8858;52.308;20.994;2023-04-24T06:47:22;12.53;;;7.70;;
17482;SDS011;8858;52.308;20.994;2023-04-24T06:49:50;15.37;;;7.70;;
17482;SDS011;8858;52.308;20.994;2023-04-24T06:52:19;13.33;;;7.63;;
17482;SDS011;8858;52.308;20.994;2023-04-24T06:54:47;23.17;;;9.23;;
17482;SDS011;8858;52.308;20.994;2023-04-24T06:57:15;20.90;;;8.80;;
17482;SDS011;8858;52.308;20.994;2023-04-24T06:59:44;17.47;;;8.50;;
17482;SDS011;8858;52.308;20.994;2023-04-24T07:02:13;24.17;;;10.07;;
17482;SDS011;8858;52.308;20.994;2023-04-24T07:04:42;19.80;;;9.13;;
17482;SDS011;8858;52.308;20.994;2023-04-24T07:07:37;28.13;;;8.53;;
17482;SDS011;8858;52.308;20.994;2023-04-24T07:10:08;20.40;;;7.63;;
17482;SDS011;8858;52.308;20.994;2023-04-24T07:12:36;26.40;;;8.67;;
17482;SDS011;8858;52.308;20.994;2023-04-24T07:15:05;17.33;;;7.80;;
17482;SDS011;8858;52.308;20.994;2023-04-24T07:17:36;14.87;;;7.33;;
17482;SDS011;8858;52.308;20.994;2023-04-24T07:20:10;22.20;;;8.03;;
17482;SDS011;8858;52.308;20.994;2023-04-24T07:22:40;17.10;;;7.27;;
17482;SDS011;8858;52.308;20.994;2023-04-24T07:25:09;31.80;;;8.77;;
17482;SDS011;8858;52.308;20.994;2023-04-24T07:27:37;14.67;;;7.70;;
17482;SDS011;8858;52.308;20.994;2023-04-24T07:30:06;15.60;;;7.60;;
17482;SDS011;8858;52.308;20.994;2023-04-24T07:32:40;17.70;;;7.40;;
17482;SDS011;8858;52.308;20.994;2023-04-24T07:35:08;17.17;;;6.97;;
17482;SDS011;8858;52.308;20.994;2023-04-24T07:37:37;17.25;;;7.45;;
17482;SDS011;8858;52.308;20.994;2023-04-24T07:40:05;15.25;;;7.18;;
17482;SDS011;8858;52.308;20.994;2023-04-24T07:42:36;15.75;;;7.50;;
17482;SDS011;8858;52.308;20.994;2023-04-24T07:45:05;14.60;;;6.90;;
17482;SDS011;8858;52.308;20.994;2023-04-24T07:47:34;16.15;;;7.10;;
17482;SDS011;8858;52.308;20.994;2023-04-24T07:50:05;15.95;;;7.00;;
17482;SDS011;8858;52.308;20.994;2023-04-24T07:52:34;11.00;;;7.03;;
17482;SDS011;8858;52.308;20.994;2023-04-24T07:55:02;21.75;;;7.75;;
17482;SDS011;8858;52.308;20.994;2023-04-24T07:57:31;20.17;;;7.07;;
17482;SDS011;8858;52.308;20.994;2023-04-24T08:00:02;12.95;;;6.55;;
17482;SDS011;8858;52.308;20.994;2023-04-24T08:02:36;15.48;;;6.68;;
17482;SDS011;8858;52.308;20.994;2023-04-24T08:05:07;25.20;;;7.30;;
17482;SDS011;8858;52.308;20.994;2023-04-24T08:07:36;20.15;;;7.13;;
17482;SDS011;8858;52.308;20.994;2023-04-24T08:10:04;11.55;;;6.30;;
17482;SDS011;8858;52.308;20.994;2023-04-24T08:12:33;16.15;;;7.43;;
17482;SDS011;8858;52.308;20.994;2023-04-24T08:15:01;19.48;;;7.40;;
17482;SDS011;8858;52.308;20.994;2023-04-24T08:17:31;13.95;;;6.80;;
17482;SDS011;8858;52.308;20.994;2023-04-24T08:19:59;16.42;;;6.97;;
17482;SDS011;8858;52.308;20.994;2023-04-24T08:22:30;24.92;;;7.38;;
17482;SDS011;8858;52.308;20.994;2023-04-24T08:24:59;25.40;;;9.80;;
17482;SDS011;8858;52.308;20.994;2023-04-24T08:27:28;18.55;;;8.65;;
17482;SDS011;8858;52.308;20.994;2023-04-24T08:29:57;14.48;;;7.50;;
17482;SDS011;8858;52.308;20.994;2023-04-24T08:32:26;17.20;;;7.10;;
17482;SDS011;8858;52.308;20.994;2023-04-24T08:34:55;15.10;;;7.10;;
17482;SDS011;8858;52.308;20.994;2023-04-24T08:37:25;14.85;;;6.57;;
17482;SDS011;8858;52.308;20.994;2023-04-24T08:39:55;15.05;;;6.78;;
17482;SDS011;8858;52.308;20.994;2023-04-24T08:42:23;16.08;;;6.95;;
17482;SDS011;8858;52.308;20.994;2023-04-24T08:44:55;12.13;;;6.63;;
17482;SDS011;8858;52.308;20.994;2023-04-24T08:47:24;14.73;;;7.43;;
17482;SDS011;8858;52.308;20.994;2023-04-24T08:49:54;11.32;;;7.05;;
17482;SDS011;8858;52.308;20.994;2023-04-24T08:52:25;12.82;;;6.95;;
17482;SDS011;8858;52.308;20.994;2023-04-24T08:54:56;10.15;;;7.00;;
17482;SDS011;8858;52.308;20.994;2023-04-24T08:57:26;11.35;;;6.68;;
17482;SDS011;8858;52.308;20.994;2023-04-24T08:59:55;12.05;;;7.10;;
17482;SDS011;8858;52.308;20.994;2023-04-24T09:02:25;13.30;;;7.10;;
17482;SDS011;8858;52.308;20.994;2023-04-24T09:04:53;11.38;;;6.93;;
17482;SDS011;8858;52.308;20.994;2023-04-24T09:07:24;15.48;;;7.03;;
17482;SDS011;8858;52.308;20.994;2023-04-24T09:09:54;9.98;;;6.22;;
17482;SDS011;8858;52.308;20.994;2023-04-24T09:12:25;12.18;;;6.82;;
17482;SDS011;8858;52.308;20.994;2023-04-24T09:14:53;12.40;;;5.90;;
17482;SDS011;8858;52.308;20.994;2023-04-24T09:17:26;7.93;;;5.22;;
17482;SDS011;8858;52.308;20.994;2023-04-24T09:19:55;12.80;;;5.57;;
17482;SDS011;8858;52.308;20.994;2023-04-24T09:22:24;9.25;;;5.05;;
17482;SDS011;8858;52.308;20.994;2023-04-24T09:25:00;10.70;;;5.20;;
17482;SDS011;8858;52.308;20.994;2023-04-24T09:27:30;10.63;;;5.90;;
17482;SDS011;8858;52.308;20.994;2023-04-24T09:30:01;14.00;;;5.93;;
17482;SDS011;8858;52.308;20.994;2023-04-24T09:32:29;11.18;;;5.72;;
17482;SDS011;8858;52.308;20.994;2023-04-24T09:35:05;16.92;;;5.95;;
17482;SDS011;8858;52.308;20.994;2023-04-24T09:37:35;16.15;;;5.53;;
17482;SDS011;8858;52.308;20.994;2023-04-24T09:40:12;18.58;;;5.95;;
17482;SDS011;8858;52.308;20.994;2023-04-24T09:42:45;8.90;;;4.70;;
17482;SDS011;8858;52.308;20.994;2023-04-24T09:45:18;8.15;;;4.93;;
17482;SDS011;8858;52.308;20.994;2023-04-24T09:47:51;7.57;;;4.93;;
17482;SDS011;8858;52.308;20.994;2023-04-24T09:50:20;9.50;;;4.80;;
17482;SDS011;8858;52.308;20.994;2023-04-24T09:52:56;8.48;;;4.82;;
17482;SDS011;8858;52.308;20.994;2023-04-24T09:55:26;8.25;;;4.50;;
17482;SDS011;8858;52.308;20.994;2023-04-24T09:57:55;7.03;;;5.00;;
17482;SDS011;8858;52.308;20.994;2023-04-24T10:00:27;11.30;;;4.60;;
17482;SDS011;8858;52.308;20.994;2023-04-24T10:02:57;9.52;;;4.55;;
17482;SDS011;8858;52.308;20.994;2023-04-24T10:05:28;7.13;;;4.60;;
17482;SDS011;8858;52.308;20.994;2023-04-24T10:07:59;7.35;;;4.40;;
17482;SDS011;8858;52.308;20.994;2023-04-24T10:10:30;12.02;;;4.70;;
17482;SDS011;8858;52.308;20.994;2023-04-24T10:12:59;8.65;;;5.18;;
17482;SDS011;8858;52.308;20.994;2023-04-24T10:15:27;6.95;;;5.00;;
17482;SDS011;8858;52.308;20.994;2023-04-24T10:17:57;9.02;;;4.60;;
17482;SDS011;8858;52.308;20.994;2023-04-24T10:20:30;14.45;;;4.60;;
17482;SDS011;8858;52.308;20.994;2023-04-24T10:22:59;10.73;;;4.95;;
17482;SDS011;8858;52.308;20.994;2023-04-24T10:25:27;10.00;;;5.20;;
17482;SDS011;8858;52.308;20.994;2023-04-24T10:27:58;15.23;;;4.57;;
17482;SDS011;8858;52.308;20.994;2023-04-24T10:30:29;12.75;;;4.63;;
17482;SDS011;8858;52.308;20.994;2023-04-24T10:33:01;18.17;;;5.05;;
17482;SDS011;8858;52.308;20.994;2023-04-24T10:35:31;9.82;;;4.13;;
17482;SDS011;8858;52.308;20.994;2023-04-24T10:38:05;5.45;;;4.00;;
17482;SDS011;8858;52.308;20.994;2023-04-24T10:40:39;7.78;;;4.78;;
17482;SDS011;8858;52.308;20.994;2023-04-24T10:43:09;5.22;;;4.43;;
17482;SDS011;8858;52.308;20.994;2023-04-24T10:45:38;6.57;;;4.90;;
17482;SDS011;8858;52.308;20.994;2023-04-24T10:48:07;8.52;;;4.53;;
17482;SDS011;8858;52.308;20.994;2023-04-24T10:50:43;7.03;;;4.57;;
17482;SDS011;8858;52.308;20.994;2023-04-24T10:53:13;7.60;;;4.55;;
17482;SDS011;8858;52.308;20.994;2023-04-24T10:55:44;6.88;;;4.80;;
17482;SDS011;8858;52.308;20.994;2023-04-24T10:58:18;6.60;;;4.55;;
17482;SDS011;8858;52.308;20.994;2023-04-24T11:00:55;8.32;;;4.60;;
17482;SDS011;8858;52.308;20.994;2023-04-24T11:03:25;11.70;;;4.90;;
17482;SDS011;8858;52.308;20.994;2023-04-24T11:06:00;5.18;;;4.40;;
17482;SDS011;8858;52.308;20.994;2023-04-24T11:08:32;6.88;;;4.70;;
17482;SDS011;8858;52.308;20.994;2023-04-24T11:11:09;8.90;;;4.50;;
17482;SDS011;8858;52.308;20.994;2023-04-24T11:16:35;8.20;;;4.50;;
17482;SDS011;8858;52.308;20.994;2023-04-24T11:19:08;6.38;;;4.05;;
17482;SDS011;8858;52.308;20.994;2023-04-24T11:21:41;7.07;;;4.60;;
17482;SDS011;8858;52.308;20.994;2023-04-24T11:26:59;6.45;;;4.63;;
17482;SDS011;8858;52.308;20.994;2023-04-24T11:29:41;10.50;;;4.88;;
17482;SDS011;8858;52.308;20.994;2023-04-24T11:32:18;18.17;;;4.60;;
17482;SDS011;8858;52.308;20.994;2023-04-24T11:34:54;9.48;;;4.63;;
17482;SDS011;8858;52.308;20.994;2023-04-24T11:37:24;5.00;;;4.18;;
17482;SDS011;8858;52.308;20.994;2023-04-24T11:39:54;6.10;;;4.30;;
17482;SDS011;8858;52.308;20.994;2023-04-24T11:42:23;5.45;;;3.92;;
17482;SDS011;8858;52.308;20.994;2023-04-24T11:44:54;6.05;;;4.13;;
17482;SDS011;8858;52.308;20.994;2023-04-24T11:47:29;5.28;;;3.92;;
17482;SDS011;8858;52.308;20.994;2023-04-24T11:50:05;9.88;;;4.32;;
17482;SDS011;8858;52.308;20.994;2023-04-24T11:52:36;4.25;;;3.55;;
17482;SDS011;8858;52.308;20.994;2023-04-24T11:55:06;7.55;;;4.20;;
17482;SDS011;8858;52.308;20.994;2023-04-24T11:57:38;5.40;;;4.20;;
17482;SDS011;8858;52.308;20.994;2023-04-24T12:00:15;9.95;;;4.68;;
17482;SDS011;8858;52.308;20.994;2023-04-24T12:02:47;6.03;;;3.78;;
17482;SDS011;8858;52.308;20.994;2023-04-24T12:05:20;5.40;;;3.50;;
17482;SDS011;8858;52.308;20.994;2023-04-24T12:07:49;7.53;;;3.72;;
17482;SDS011;8858;52.308;20.994;2023-04-24T12:10:19;8.63;;;3.53;;
17482;SDS011;8858;52.308;20.994;2023-04-24T12:12:48;4.53;;;3.58;;
17482;SDS011;8858;52.308;20.994;2023-04-24T12:15:19;7.05;;;4.30;;
17482;SDS011;8858;52.308;20.994;2023-04-24T12:17:50;14.07;;;3.70;;
17482;SDS011;8858;52.308;20.994;2023-04-24T12:20:23;8.85;;;3.58;;
17482;SDS011;8858;52.308;20.994;2023-04-24T12:22:53;7.35;;;3.78;;
17482;SDS011;8858;52.308;20.994;2023-04-24T12:25:23;6.38;;;4.05;;
17482;SDS011;8858;52.308;20.994;2023-04-24T12:27:53;8.25;;;3.95;;
17482;SDS011;8858;52.308;20.994;2023-04-24T12:30:27;3.95;;;3.63;;
17482;SDS011;8858;52.308;20.994;2023-04-24T12:32:56;4.30;;;3.90;;
17482;SDS011;8858;52.308;20.994;2023-04-24T12:35:27;6.68;;;4.07;;
17482;SDS011;8858;52.308;20.994;2023-04-24T12:38:05;4.13;;;3.72;;
17482;SDS011;8858;52.308;20.994;2023-04-24T12:40:34;6.15;;;3.90;;
17482;SDS011;8858;52.308;20.994;2023-04-24T12:43:02;4.05;;;3.65;;
17482;SDS011;8858;52.308;20.994;2023-04-24T12:45:42;4.28;;;3.88;;
17482;SDS011;8858;52.308;20.994;2023-04-24T12:48:15;4.97;;;3.58;;
17482;SDS011;8858;52.308;20.994;2023-04-24T12:50:43;5.60;;;3.38;;
17482;SDS011;8858;52.308;20.994;2023-04-24T12:53:13;5.38;;;3.55;;
17482;SDS011;8858;52.308;20.994;2023-04-24T12:55:43;5.30;;;3.25;;
17482;SDS011;8858;52.308;20.994;2023-04-24T12:58:13;6.15;;;3.03;;
17482;SDS011;8858;52.308;20.994;2023-04-24T13:00:43;19.25;;;4.35;;
17482;SDS011;8858;52.308;20.994;2023-04-24T13:03:12;44.08;;;5.65;;
17482;SDS011;8858;52.308;20.994;2023-04-24T13:05:41;44.67;;;5.75;;
17482;SDS011;8858;52.308;20.994;2023-04-24T13:08:10;41.63;;;5.20;;
17482;SDS011;8858;52.308;20.994;2023-04-24T13:10:39;37.67;;;5.15;;
17482;SDS011;8858;52.308;20.994;2023-04-24T13:13:11;36.47;;;4.47;;
17482;SDS011;8858;52.308;20.994;2023-04-24T13:15:40;57.65;;;5.72;;
17482;SDS011;8858;52.308;20.994;2023-04-24T13:18:09;20.90;;;3.85;;
17482;SDS011;8858;52.308;20.994;2023-04-24T13:20:38;32.40;;;4.53;;
17482;SDS011;8858;52.308;20.994;2023-04-24T13:23:07;22.50;;;3.85;;
17482;SDS011;8858;52.308;20.994;2023-04-24T13:25:39;17.25;;;3.20;;
17482;SDS011;8858;52.308;20.994;2023-04-24T13:28:08;8.10;;;3.10;;
17482;SDS011;8858;52.308;20.994;2023-04-24T13:30:36;13.05;;;3.00;;
17482;SDS011;8858;52.308;20.994;2023-04-24T13:33:05;13.30;;;3.00;;
17482;SDS011;8858;52.308;20.994;2023-04-24T13:35:35;18.55;;;3.45;;
17482;SDS011;8858;52.308;20.994;2023-04-24T13:38:06;11.90;;;3.13;;
17482;SDS011;8858;52.308;20.994;2023-04-24T13:40:38;5.68;;;3.00;;
17482;SDS011;8858;52.308;20.994;2023-04-24T13:43:07;10.40;;;2.80;;
17482;SDS011;8858;52.308;20.994;2023-04-24T13:45:35;5.13;;;2.55;;
17482;SDS011;8858;52.308;20.994;2023-04-24T13:48:04;9.95;;;3.22;;
17482;SDS011;8858;52.308;20.994;2023-04-24T13:50:35;3.63;;;2.47;;
17482;SDS011;8858;52.308;20.994;2023-04-24T13:53:04;4.45;;;2.60;;
17482;SDS011;8858;52.308;20.994;2023-04-24T13:55:32;6.75;;;2.83;;
17482;SDS011;8858;52.308;20.994;2023-04-24T13:58:00;6.32;;;2.95;;
17482;SDS011;8858;52.308;20.994;2023-04-24T14:00:29;9.30;;;3.00;;
17482;SDS011;8858;52.308;20.994;2023-04-24T14:02:57;5.18;;;2.88;;
17482;SDS011;8858;52.308;20.994;2023-04-24T14:05:25;10.70;;;3.35;;
17482;SDS011;8858;52.308;20.994;2023-04-24T14:07:55;10.65;;;4.88;;
17482;SDS011;8858;52.308;20.994;2023-04-24T14:10:24;6.93;;;2.60;;
17482;SDS011;8858;52.308;20.994;2023-04-24T14:12:55;5.05;;;2.50;;
17482;SDS011;8858;52.308;20.994;2023-04-24T14:15:23;8.75;;;2.88;;
17482;SDS011;8858;52.308;20.994;2023-04-24T14:17:51;3.47;;;2.42;;
17482;SDS011;8858;52.308;20.994;2023-04-24T14:20:19;5.15;;;2.70;;
17482;SDS011;8858;52.308;20.994;2023-04-24T14:22:51;11.93;;;3.45;;
17482;SDS011;8858;52.308;20.994;2023-04-24T14:25:21;6.22;;;2.90;;
17482;SDS011;8858;52.308;20.994;2023-04-24T14:27:50;21.15;;;4.07;;
17482;SDS011;8858;52.308;20.994;2023-04-24T14:30:19;12.60;;;3.25;;
17482;SDS011;8858;52.308;20.994;2023-04-24T14:32:48;5.63;;;2.58;;
17482;SDS011;8858;52.308;20.994;2023-04-24T14:35:16;2.90;;;2.70;;
17482;SDS011;8858;52.308;20.994;2023-04-24T14:37:45;4.30;;;2.50;;
17482;SDS011;8858;52.308;20.994;2023-04-24T14:40:17;3.47;;;2.67;;
17482;SDS011;8858;52.308;20.994;2023-04-24T14:43:07;3.15;;;2.78;;
17482;SDS011;8858;52.308;20.994;2023-04-24T14:45:36;4.07;;;2.53;;
17482;SDS011;8858;52.308;20.994;2023-04-24T14:48:04;5.10;;;2.83;;
17482;SDS011;8858;52.308;20.994;2023-04-24T14:50:35;6.85;;;2.65;;
17482;SDS011;8858;52.308;20.994;2023-04-24T14:53:03;3.60;;;2.55;;
17482;SDS011;8858;52.308;20.994;2023-04-24T14:55:32;7.65;;;6.88;;
17482;SDS011;8858;52.308;20.994;2023-04-24T14:58:03;6.13;;;2.80;;
17482;SDS011;8858;52.308;20.994;2023-04-24T15:00:33;5.00;;;2.33;;
17482;SDS011;8858;52.308;20.994;2023-04-24T15:03:01;3.63;;;2.47;;
17482;SDS011;8858;52.308;20.994;2023-04-24T15:05:30;4.72;;;2.60;;